createdAt,value
2023-01-21T00:00:20.846Z,294.80
2023-01-21T00:01:20.902Z,280.70
2023-01-21T00:02:20.871Z,272.10
2023-01-21T00:03:20.824Z,267.60
2023-01-21T00:04:20.828Z,272.50
2023-01-21T00:05:20.786Z,265.80
2023-01-21T00:06:20.809Z,271.70
2023-01-21T00:07:20.772Z,266.00
2023-01-21T00:08:20.767Z,236.80
2023-01-21T00:09:20.746Z,244.20
2023-01-21T00:10:20.768Z,238.10
2023-01-21T00:11:20.754Z,219.40
2023-01-21T00:12:20.674Z,203.30
2023-01-21T00:13:20.685Z,98.80
2023-01-21T00:14:20.683Z,149.20
2023-01-21T00:15:20.658Z,203.30
2023-01-21T00:16:20.680Z,191.00
2023-01-21T00:17:20.635Z,179.30
2023-01-21T00:18:20.810Z,173.70
2023-01-21T00:19:20.617Z,171.60
2023-01-21T00:20:20.608Z,88.60
2023-01-21T00:21:20.644Z,108.10
2023-01-21T00:22:20.577Z,119.00
2023-01-21T00:23:20.576Z,114.40
2023-01-21T00:24:20.564Z,281.30
2023-01-21T00:25:20.548Z,698.10
2023-01-21T00:26:20.614Z,621.60
2023-01-21T00:27:20.540Z,579.40
2023-01-21T00:28:20.512Z,378.20
2023-01-21T00:29:20.517Z,90.40
2023-01-21T00:30:20.499Z,98.50
2023-01-21T00:31:20.620Z,109.70
2023-01-21T00:32:20.463Z,200.30
2023-01-21T00:33:20.451Z,223.60
2023-01-21T00:34:20.439Z,223.00
2023-01-21T00:35:20.451Z,225.00
2023-01-21T00:36:20.461Z,217.60
2023-01-21T00:37:20.421Z,217.50
2023-01-21T00:38:20.415Z,213.90
2023-01-21T00:39:20.377Z,218.70
2023-01-21T00:40:20.373Z,172.50
2023-01-21T00:41:20.413Z,93.20
2023-01-21T00:42:20.367Z,100.90
2023-01-21T00:43:20.344Z,153.20
2023-01-21T00:44:20.340Z,102.50
2023-01-21T00:45:20.335Z,103.80
2023-01-21T00:46:20.402Z,150.20
2023-01-21T00:47:20.319Z,632.50
2023-01-21T00:48:20.292Z,601.20
2023-01-21T00:49:20.287Z,551.50
2023-01-21T00:50:20.268Z,211.90
2023-01-21T00:51:20.336Z,98.00
2023-01-21T00:52:20.256Z,119.00
2023-01-21T00:53:20.248Z,128.70
2023-01-21T00:54:20.284Z,325.80
2023-01-21T00:55:20.212Z,285.10
2023-01-21T00:56:20.245Z,263.80
2023-01-21T00:57:20.220Z,264.00
2023-01-21T00:58:20.168Z,251.90
2023-01-21T00:59:20.187Z,239.10
2023-01-21T01:00:20.157Z,229.80
2023-01-21T01:01:20.227Z,232.30
2023-01-21T01:02:20.148Z,226.60
2023-01-21T01:03:20.114Z,98.30
2023-01-21T01:04:20.115Z,157.20
2023-01-21T01:05:20.105Z,195.90
2023-01-21T01:06:20.131Z,111.40
2023-01-21T01:07:20.094Z,110.30
2023-01-21T01:08:20.062Z,117.90
2023-01-21T01:09:20.050Z,352.90
2023-01-21T01:10:20.041Z,297.50
2023-01-21T01:11:20.102Z,299.00
2023-01-21T01:12:20.036Z,291.40
2023-01-21T01:13:20.011Z,288.20
2023-01-21T01:14:20.012Z,273.20
2023-01-21T01:15:19.983Z,270.90
2023-01-21T01:16:20.017Z,274.40
2023-01-21T01:17:20.007Z,265.70
2023-01-21T01:18:19.949Z,274.50
2023-01-21T01:19:19.947Z,256.80
2023-01-21T01:20:19.935Z,259.20
2023-01-21T01:21:19.918Z,103.70
2023-01-21T01:22:19.951Z,117.90
2023-01-21T01:23:19.899Z,293.00
2023-01-21T01:24:19.877Z,617.80
2023-01-21T01:25:19.881Z,523.80
2023-01-21T01:26:19.870Z,404.60
2023-01-21T01:27:19.885Z,102.90
2023-01-21T01:28:19.862Z,119.90
2023-01-21T01:29:19.828Z,107.20
2023-01-21T01:30:19.825Z,122.40
2023-01-21T01:31:19.868Z,319.10
2023-01-21T01:32:19.833Z,384.30
2023-01-21T01:33:19.794Z,346.90
2023-01-21T01:34:19.766Z,294.40
2023-01-21T01:35:19.777Z,288.50
2023-01-21T01:36:19.747Z,260.70
2023-01-21T01:37:19.784Z,89.40
2023-01-21T01:38:19.756Z,96.40
2023-01-21T01:39:19.717Z,118.80
2023-01-21T01:40:19.767Z,194.50
2023-01-21T01:41:19.717Z,308.30
2023-01-21T01:42:19.742Z,249.10
2023-01-21T01:43:19.678Z,256.00
2023-01-21T01:44:19.679Z,249.80
2023-01-21T01:45:19.654Z,236.30
2023-01-21T01:46:19.653Z,233.20
2023-01-21T01:47:19.671Z,227.60
2023-01-21T01:48:19.614Z,228.70
2023-01-21T01:49:19.636Z,160.60
2023-01-21T01:50:19.620Z,102.20
2023-01-21T01:51:19.630Z,107.20
2023-01-21T01:52:19.624Z,126.70
2023-01-21T01:53:19.603Z,318.70
2023-01-21T01:54:19.564Z,223.80
2023-01-21T01:55:19.531Z,108.80
2023-01-21T01:56:19.549Z,122.20
2023-01-21T01:57:19.575Z,252.00
2023-01-21T01:58:19.510Z,636.60
2023-01-21T01:59:19.493Z,599.20
2023-01-21T02:00:19.630Z,507.00
2023-01-21T02:01:19.547Z,101.40
2023-01-21T02:02:19.516Z,82.70
2023-01-21T02:03:19.462Z,98.80
2023-01-21T02:04:19.462Z,115.70
2023-01-21T02:05:19.408Z,265.20
2023-01-21T02:06:19.410Z,267.20
2023-01-21T02:07:19.459Z,234.90
2023-01-21T02:08:19.417Z,230.40
2023-01-21T02:09:19.439Z,226.50
2023-01-21T02:10:19.559Z,224.00
2023-01-21T02:11:19.363Z,228.50
2023-01-21T02:12:19.393Z,223.50
2023-01-21T02:13:19.335Z,217.20
2023-01-21T02:14:19.348Z,147.50
2023-01-21T02:15:19.323Z,106.60
2023-01-21T02:16:19.381Z,115.40
2023-01-21T02:17:19.356Z,108.10
2023-01-21T02:18:19.295Z,287.10
2023-01-21T02:19:19.284Z,228.30
2023-01-21T02:20:19.249Z,225.30
2023-01-21T02:21:19.261Z,222.20
2023-01-21T02:22:19.311Z,218.30
2023-01-21T02:23:19.234Z,128.40
2023-01-21T02:24:19.203Z,103.40
2023-01-21T02:25:19.222Z,121.80
2023-01-21T02:26:19.223Z,347.60
2023-01-21T02:27:19.296Z,417.70
2023-01-21T02:28:19.177Z,293.30
2023-01-21T02:29:19.185Z,289.40
2023-01-21T02:30:19.291Z,306.00
2023-01-21T02:31:19.318Z,304.00
2023-01-21T02:32:19.172Z,304.60
2023-01-21T02:33:19.096Z,347.60
2023-01-21T02:34:19.100Z,316.60
2023-01-21T02:35:19.086Z,312.00
2023-01-21T02:36:19.096Z,311.60
2023-01-21T02:37:19.122Z,207.60
2023-01-21T02:38:19.065Z,116.90
2023-01-21T02:39:19.054Z,101.20
2023-01-21T02:40:19.292Z,104.80
2023-01-21T02:41:19.032Z,141.60
2023-01-21T02:42:19.067Z,420.40
2023-01-21T02:43:18.995Z,588.60
2023-01-21T02:44:18.997Z,486.60
2023-01-21T02:45:18.994Z,241.10
2023-01-21T02:46:19.004Z,86.30
2023-01-21T02:47:19.005Z,110.40
2023-01-21T02:48:18.954Z,111.60
2023-01-21T02:49:18.921Z,214.30
2023-01-21T02:50:19.120Z,435.80
2023-01-21T02:51:18.924Z,346.00
2023-01-21T02:52:18.947Z,353.50
2023-01-21T02:53:18.883Z,360.30
2023-01-21T02:54:18.879Z,356.30
2023-01-21T02:55:18.872Z,365.20
2023-01-21T02:56:18.853Z,360.20
2023-01-21T02:57:18.882Z,350.40
2023-01-21T02:58:18.829Z,342.40
2023-01-21T02:59:18.830Z,312.00
2023-01-21T03:00:19.134Z,308.60
2023-01-21T03:01:18.793Z,293.70
2023-01-21T03:02:18.895Z,290.60
2023-01-21T03:03:18.788Z,91.60
2023-01-21T03:04:18.768Z,102.20
2023-01-21T03:05:18.741Z,109.30
2023-01-21T03:06:18.752Z,216.00
2023-01-21T03:07:18.783Z,250.90
2023-01-21T03:08:18.723Z,111.10
2023-01-21T03:09:18.710Z,122.30
2023-01-21T03:10:18.777Z,148.60
2023-01-21T03:11:18.722Z,112.20
2023-01-21T03:12:18.726Z,114.70
2023-01-21T03:13:18.678Z,133.60
2023-01-21T03:14:18.649Z,207.00
2023-01-21T03:15:18.635Z,213.80
2023-01-21T03:16:18.656Z,212.50
2023-01-21T03:17:18.662Z,213.00
2023-01-21T03:18:18.601Z,153.40
2023-01-21T03:19:18.597Z,101.50
2023-01-21T03:20:18.821Z,116.60
2023-01-21T03:21:18.585Z,117.20
2023-01-21T03:22:18.613Z,216.20
2023-01-21T03:23:18.551Z,239.70
2023-01-21T03:24:18.548Z,240.50
2023-01-21T03:25:18.526Z,237.60
2023-01-21T03:26:18.521Z,213.00
2023-01-21T03:27:18.534Z,158.40
2023-01-21T03:28:18.508Z,108.40
2023-01-21T03:29:18.471Z,120.00
2023-01-21T03:30:18.763Z,179.40
2023-01-21T03:31:18.482Z,235.70
2023-01-21T03:32:18.509Z,494.20
2023-01-21T03:33:18.439Z,352.10
2023-01-21T03:34:18.437Z,370.80
2023-01-21T03:35:18.421Z,360.80
2023-01-21T03:36:18.401Z,345.70
2023-01-21T03:37:18.431Z,324.20
2023-01-21T03:38:18.413Z,307.20
2023-01-21T03:39:18.389Z,298.50
2023-01-21T03:40:18.634Z,295.30
2023-01-21T03:41:18.351Z,340.90
2023-01-21T03:42:18.382Z,156.80
2023-01-21T03:43:18.335Z,94.30
2023-01-21T03:44:18.323Z,101.90
2023-01-21T03:45:18.324Z,222.20
2023-01-21T03:46:18.294Z,162.00
2023-01-21T03:47:18.323Z,100.00
2023-01-21T03:48:18.270Z,113.20
2023-01-21T03:49:18.264Z,189.40
2023-01-21T03:50:18.686Z,107.90
2023-01-21T03:51:18.288Z,98.00
2023-01-21T03:52:18.271Z,252.10
2023-01-21T03:53:18.221Z,235.60
2023-01-21T03:54:18.203Z,112.20
2023-01-21T03:55:18.188Z,126.30
2023-01-21T03:56:18.186Z,231.60
2023-01-21T03:57:18.252Z,292.30
2023-01-21T03:58:18.164Z,260.50
2023-01-21T03:59:18.167Z,242.20
2023-01-21T04:00:18.417Z,239.60
2023-01-21T04:01:18.152Z,233.40
2023-01-21T04:02:18.218Z,229.80
2023-01-21T04:03:18.099Z,226.40
2023-01-21T04:04:18.099Z,186.50
2023-01-21T04:05:18.083Z,97.30
2023-01-21T04:06:18.078Z,117.60
2023-01-21T04:07:18.099Z,108.60
2023-01-21T04:08:18.047Z,280.40
2023-01-21T04:09:18.048Z,269.00
2023-01-21T04:10:18.483Z,244.30
2023-01-21T04:11:18.009Z,234.80
2023-01-21T04:12:18.051Z,235.80
2023-01-21T04:13:17.992Z,233.60
2023-01-21T04:14:17.999Z,101.30
2023-01-21T04:15:17.965Z,94.30
2023-01-21T04:16:17.981Z,96.50
2023-01-21T04:17:17.950Z,171.70
2023-01-21T04:18:17.976Z,99.80
2023-01-21T04:19:17.918Z,166.30
2023-01-21T04:20:18.255Z,169.90
2023-01-21T04:21:17.901Z,98.00
2023-01-21T04:22:17.892Z,113.70
2023-01-21T04:23:17.933Z,176.20
2023-01-21T04:24:17.874Z,98.30
2023-01-21T04:25:17.860Z,245.30
2023-01-21T04:26:17.866Z,247.20
2023-01-21T04:27:17.813Z,244.90
2023-01-21T04:28:17.870Z,242.00
2023-01-21T04:29:17.794Z,235.60
2023-01-21T04:30:18.202Z,222.10
2023-01-21T04:31:17.824Z,224.60
2023-01-21T04:32:17.773Z,248.90
2023-01-21T04:33:17.823Z,227.40
2023-01-21T04:34:17.761Z,190.00
2023-01-21T04:35:17.756Z,192.00
2023-01-21T04:36:17.747Z,97.30
2023-01-21T04:37:17.725Z,103.30
2023-01-21T04:38:17.769Z,138.80
2023-01-21T04:39:17.711Z,210.30
2023-01-21T04:40:18.044Z,183.90
2023-01-21T04:41:17.671Z,187.80
2023-01-21T04:42:17.700Z,181.70
2023-01-21T04:43:17.696Z,184.10
2023-01-21T04:44:17.672Z,168.30
2023-01-21T04:45:17.626Z,86.80
2023-01-21T04:46:17.692Z,93.70
2023-01-21T04:47:17.618Z,91.80
2023-01-21T04:48:17.647Z,103.00
2023-01-21T04:49:17.591Z,182.40
2023-01-21T04:50:17.863Z,116.10
2023-01-21T04:51:17.628Z,103.00
2023-01-21T04:52:17.571Z,149.80
2023-01-21T04:53:17.619Z,94.40
2023-01-21T04:54:17.537Z,161.80
2023-01-21T04:55:17.521Z,229.30
2023-01-21T04:56:17.520Z,226.40
2023-01-21T04:57:17.487Z,226.80
2023-01-21T04:58:17.524Z,226.20
2023-01-21T04:59:17.480Z,223.90
2023-01-21T05:00:17.628Z,224.30
2023-01-21T05:01:17.529Z,225.90
2023-01-21T05:02:17.492Z,223.80
2023-01-21T05:03:17.475Z,135.30
2023-01-21T05:04:17.425Z,173.10
2023-01-21T05:05:17.417Z,95.80
2023-01-21T05:06:17.405Z,169.80
2023-01-21T05:07:17.714Z,216.70
2023-01-21T05:08:17.432Z,161.40
2023-01-21T05:09:17.367Z,103.30
2023-01-21T05:10:17.730Z,177.10
2023-01-21T05:11:17.353Z,195.60
2023-01-21T05:12:17.336Z,190.30
2023-01-21T05:13:17.360Z,179.30
2023-01-21T05:14:17.307Z,92.60
2023-01-21T05:15:17.308Z,105.80
2023-01-21T05:16:17.337Z,98.20
2023-01-21T05:17:17.274Z,294.90
2023-01-21T05:18:17.315Z,327.90
2023-01-21T05:19:17.255Z,293.90
2023-01-21T05:20:17.628Z,310.50
2023-01-21T05:21:17.235Z,283.80
2023-01-21T05:22:17.212Z,285.80
2023-01-21T05:23:17.264Z,290.80
2023-01-21T05:24:17.200Z,290.50
2023-01-21T05:25:17.199Z,241.30
2023-01-21T05:26:17.168Z,107.60
2023-01-21T05:27:17.157Z,93.30
2023-01-21T05:28:17.193Z,94.60
2023-01-21T05:29:17.182Z,108.70
2023-01-21T05:30:17.293Z,122.50
2023-01-21T05:31:17.275Z,535.70
2023-01-21T05:32:17.130Z,626.50
2023-01-21T05:33:17.170Z,558.20
2023-01-21T05:34:17.085Z,604.00
2023-01-21T05:35:17.084Z,532.70
2023-01-21T05:36:17.076Z,214.20
2023-01-21T05:37:17.075Z,88.70
2023-01-21T05:38:17.095Z,95.40
2023-01-21T05:39:17.046Z,84.00
2023-01-21T05:40:17.249Z,98.40
2023-01-21T05:41:17.045Z,145.00
2023-01-21T05:42:17.029Z,154.80
2023-01-21T05:43:17.047Z,96.20
2023-01-21T05:44:17.884Z,103.00
2023-01-21T05:45:16.993Z,310.10
2023-01-21T05:46:16.995Z,298.40
2023-01-21T05:47:16.958Z,286.10
2023-01-21T05:48:16.965Z,284.70
2023-01-21T05:49:16.930Z,282.70
2023-01-21T05:50:17.258Z,282.30
2023-01-21T05:51:17.033Z,274.80
2023-01-21T05:52:16.894Z,260.60
2023-01-21T05:53:16.911Z,252.40
2023-01-21T05:54:16.883Z,150.40
2023-01-21T05:55:16.850Z,92.80
2023-01-21T05:56:16.863Z,103.10
2023-01-21T05:57:16.835Z,115.90
2023-01-21T05:58:16.902Z,169.90
2023-01-21T05:59:16.837Z,116.30
2023-01-21T06:00:17.227Z,102.00
2023-01-21T06:01:16.816Z,143.10
2023-01-21T06:02:16.818Z,473.30
2023-01-21T06:03:16.857Z,633.50
2023-01-21T06:04:16.767Z,573.00
2023-01-21T06:05:16.786Z,456.50
2023-01-21T06:06:16.744Z,88.30
2023-01-21T06:07:16.730Z,99.40
2023-01-21T06:08:16.757Z,97.80
2023-01-21T06:09:16.692Z,210.50
2023-01-21T06:10:17.050Z,252.10
2023-01-21T06:11:16.679Z,231.90
2023-01-21T06:12:16.686Z,89.70
2023-01-21T06:13:16.718Z,102.60
2023-01-21T06:14:16.696Z,127.50
2023-01-21T06:15:16.654Z,340.90
2023-01-21T06:16:16.636Z,301.40
2023-01-21T06:17:16.626Z,292.90
2023-01-21T06:18:16.674Z,279.20
2023-01-21T06:19:16.583Z,277.20
2023-01-21T06:20:16.913Z,270.30
2023-01-21T06:21:16.560Z,248.50
2023-01-21T06:22:16.556Z,259.30
2023-01-21T06:23:16.587Z,88.50
2023-01-21T06:24:16.522Z,93.50
2023-01-21T06:25:16.527Z,103.00
2023-01-21T06:26:16.514Z,104.50
2023-01-21T06:27:16.497Z,325.40
2023-01-21T06:28:16.537Z,591.00
2023-01-21T06:29:16.476Z,530.20
2023-01-21T06:30:16.745Z,179.40
2023-01-21T06:31:16.465Z,90.20
2023-01-21T06:32:16.450Z,93.40
2023-01-21T06:33:16.461Z,110.30
2023-01-21T06:34:16.429Z,125.20
2023-01-21T06:35:16.406Z,104.70
2023-01-21T06:36:16.397Z,187.70
2023-01-21T06:37:16.383Z,230.40
2023-01-21T06:38:16.422Z,224.80
2023-01-21T06:39:16.354Z,231.80
2023-01-21T06:40:16.626Z,224.40
2023-01-21T06:41:16.343Z,147.20
2023-01-21T06:42:16.335Z,95.40
2023-01-21T06:43:16.366Z,117.00
2023-01-21T06:44:16.315Z,125.00
2023-01-21T06:45:16.314Z,206.70
2023-01-21T06:46:16.334Z,150.70
2023-01-21T06:47:16.281Z,97.50
2023-01-21T06:48:16.304Z,100.20
2023-01-21T06:49:16.249Z,105.20
2023-01-21T06:50:16.492Z,122.70
2023-01-21T06:51:16.241Z,242.80
2023-01-21T06:52:16.247Z,267.60
2023-01-21T06:53:16.241Z,254.70
2023-01-21T06:54:16.201Z,250.00
2023-01-21T06:55:16.201Z,252.00
2023-01-21T06:56:16.177Z,247.00
2023-01-21T06:57:16.163Z,241.90
2023-01-21T06:58:16.196Z,227.60
2023-01-21T06:59:16.146Z,101.40
2023-01-21T07:00:16.521Z,97.00
2023-01-21T07:01:16.172Z,104.60
2023-01-21T07:02:16.102Z,198.00
2023-01-21T07:03:16.099Z,453.50
2023-01-21T07:04:16.127Z,449.20
2023-01-21T07:05:16.595Z,282.90
2023-01-21T07:06:16.066Z,383.20
2023-01-21T07:07:16.061Z,320.40
2023-01-21T07:08:16.049Z,266.70
2023-01-21T07:09:16.075Z,274.30
2023-01-21T07:10:16.449Z,258.60
2023-01-21T07:11:16.003Z,273.50
2023-01-21T07:12:15.997Z,259.20
2023-01-21T07:13:15.995Z,259.90
2023-01-21T07:14:16.030Z,251.60
2023-01-21T07:15:16.216Z,247.00
2023-01-21T07:16:15.969Z,244.00
2023-01-21T07:17:15.946Z,75.20
2023-01-21T07:18:15.945Z,88.60
2023-01-21T07:19:15.960Z,84.00
2023-01-21T07:20:15.921Z,122.90
2023-01-21T07:21:15.888Z,92.00
2023-01-21T07:22:15.875Z,152.80
2023-01-21T07:23:15.876Z,112.90
2023-01-21T07:24:15.907Z,114.20
2023-01-21T07:25:16.133Z,89.80
2023-01-21T07:26:15.844Z,89.10
2023-01-21T07:27:15.822Z,172.40
2023-01-21T07:28:15.828Z,257.40
2023-01-21T07:29:15.842Z,247.30
2023-01-21T07:30:16.010Z,233.10
2023-01-21T07:31:15.864Z,211.10
2023-01-21T07:32:15.782Z,200.60
2023-01-21T07:33:15.766Z,194.30
2023-01-21T07:34:15.795Z,183.50
2023-01-21T07:35:16.111Z,184.60
2023-01-21T07:36:15.724Z,181.00
2023-01-21T07:37:15.721Z,178.10
2023-01-21T07:38:15.739Z,79.90
2023-01-21T07:39:15.741Z,75.30
2023-01-21T07:40:15.700Z,108.80
2023-01-21T07:41:15.665Z,100.60
2023-01-21T07:42:15.663Z,214.00
2023-01-21T07:43:15.637Z,211.80
2023-01-21T07:44:15.700Z,210.40
2023-01-21T07:45:15.812Z,198.70
2023-01-21T07:46:15.650Z,173.10
2023-01-21T07:47:15.609Z,184.80
2023-01-21T07:48:15.605Z,191.70
2023-01-21T07:49:15.623Z,187.20
2023-01-21T07:50:15.575Z,184.00
2023-01-21T07:51:15.557Z,95.30
2023-01-21T07:52:15.545Z,83.90
2023-01-21T07:53:15.544Z,124.00
2023-01-21T07:54:15.589Z,72.20
2023-01-21T07:55:15.847Z,83.60
2023-01-21T07:56:15.515Z,161.30
2023-01-21T07:57:15.502Z,123.90
2023-01-21T07:58:15.484Z,69.10
2023-01-21T07:59:15.515Z,114.20
2023-01-21T08:00:15.473Z,179.80
2023-01-21T08:01:15.455Z,159.10
2023-01-21T08:02:15.504Z,186.60
2023-01-21T08:03:15.424Z,389.50
2023-01-21T08:04:15.470Z,489.40
2023-01-21T08:05:15.870Z,352.00
2023-01-21T08:06:15.403Z,348.60
2023-01-21T08:07:15.402Z,373.20
2023-01-21T08:08:15.374Z,377.90
2023-01-21T08:09:15.421Z,399.80
2023-01-21T08:10:15.356Z,383.80
2023-01-21T08:11:15.336Z,412.10
2023-01-21T08:12:15.331Z,428.60
2023-01-21T08:13:15.311Z,458.80
2023-01-21T08:14:15.354Z,461.40
2023-01-21T08:15:15.551Z,462.50
2023-01-21T08:16:15.319Z,463.10
2023-01-21T08:17:15.268Z,461.10
2023-01-21T08:18:15.255Z,455.90
2023-01-21T08:19:15.297Z,457.00
2023-01-21T08:20:15.224Z,453.60
2023-01-21T08:21:15.235Z,454.90
2023-01-21T08:22:15.228Z,423.40
2023-01-21T08:23:15.235Z,436.60
2023-01-21T08:24:15.242Z,391.40
2023-01-21T08:25:15.308Z,397.30
2023-01-21T08:26:15.178Z,406.80
2023-01-21T08:27:15.155Z,401.20
2023-01-21T08:28:15.152Z,376.00
2023-01-21T08:29:15.173Z,371.10
2023-01-21T08:30:15.136Z,324.00
2023-01-21T08:31:15.160Z,360.80
2023-01-21T08:32:15.122Z,354.50
2023-01-21T08:33:15.083Z,353.10
2023-01-21T08:34:15.120Z,343.10
2023-01-21T08:35:15.437Z,194.80
2023-01-21T08:36:15.064Z,1270.10
2023-01-21T08:37:15.047Z,378.20
2023-01-21T08:38:15.037Z,89.60
2023-01-21T08:39:15.100Z,115.90
2023-01-21T08:40:15.007Z,1999.90
2023-01-21T08:41:14.997Z,1999.90
2023-01-21T08:42:15.003Z,417.00
2023-01-21T08:43:14.976Z,282.60
2023-01-21T08:44:15.029Z,1999.90
2023-01-21T08:45:15.525Z,738.40
2023-01-21T08:46:14.950Z,631.30
2023-01-21T08:47:14.926Z,1999.90
2023-01-21T08:48:14.910Z,1999.90
2023-01-21T08:49:14.946Z,1999.90
2023-01-21T08:50:14.889Z,417.50
2023-01-21T08:51:14.944Z,516.20
2023-01-21T08:52:14.878Z,1999.90
2023-01-21T08:53:14.860Z,1999.90
2023-01-21T08:54:14.892Z,1999.90
2023-01-21T08:55:15.216Z,242.90
2023-01-21T08:56:14.829Z,282.70
2023-01-21T08:57:14.814Z,153.40
2023-01-21T08:58:14.808Z,225.40
2023-01-21T08:59:14.833Z,252.20
2023-01-21T09:00:14.781Z,226.50
2023-01-21T09:01:14.828Z,192.40
2023-01-21T09:02:14.775Z,272.90
2023-01-21T09:03:14.747Z,1999.90
2023-01-21T09:04:14.775Z,554.50
2023-01-21T09:05:14.961Z,1999.90
2023-01-21T09:06:14.724Z,1999.90
2023-01-21T09:07:14.703Z,1999.90
2023-01-21T09:08:14.701Z,1999.90
2023-01-21T09:09:14.754Z,1999.90
2023-01-21T09:10:14.672Z,1999.90
2023-01-21T09:11:14.660Z,1999.90
2023-01-21T09:12:14.651Z,1999.90
2023-01-21T09:13:14.641Z,1999.90
2023-01-21T09:14:14.657Z,1999.90
2023-01-21T09:15:14.870Z,1999.90
2023-01-21T09:16:14.640Z,347.30
2023-01-21T09:17:14.588Z,1999.90
2023-01-21T09:18:14.570Z,1999.90
2023-01-21T09:19:14.609Z,1999.90
2023-01-21T09:20:14.554Z,1999.90
2023-01-21T09:21:14.561Z,1999.90
2023-01-21T09:22:14.528Z,1999.90
2023-01-21T09:23:14.526Z,1999.90
2023-01-21T09:24:14.554Z,1999.90
2023-01-21T09:25:14.597Z,1999.90
2023-01-21T09:26:14.490Z,1999.90
2023-01-21T09:27:14.490Z,1999.90
2023-01-21T09:28:14.472Z,1999.90
2023-01-21T09:29:14.494Z,1999.90
2023-01-21T09:30:14.457Z,1999.90
2023-01-21T09:31:14.455Z,1999.90
2023-01-21T09:32:14.435Z,1999.90
2023-01-21T09:33:14.433Z,1999.90
2023-01-21T09:34:14.418Z,1999.90
2023-01-21T09:35:14.759Z,1999.90
2023-01-21T09:36:14.394Z,1999.90
2023-01-21T09:37:14.367Z,1999.90
2023-01-21T09:38:14.361Z,1999.90
2023-01-21T09:39:14.363Z,1999.90
2023-01-21T09:40:14.373Z,1999.90
2023-01-21T09:41:14.322Z,1999.90
2023-01-21T09:42:14.301Z,1999.90
2023-01-21T09:43:14.293Z,1999.90
2023-01-21T09:44:14.300Z,1999.90
2023-01-21T09:45:14.587Z,1999.90
2023-01-21T09:46:14.273Z,1999.90
2023-01-21T09:47:14.244Z,1999.90
2023-01-21T09:48:14.236Z,1999.90
2023-01-21T09:49:14.219Z,1999.90
2023-01-21T09:50:14.283Z,1999.90
2023-01-21T09:51:14.287Z,1999.90
2023-01-21T09:52:14.210Z,1999.90
2023-01-21T09:53:14.200Z,1999.90
2023-01-21T09:54:14.209Z,1999.90
2023-01-21T09:55:14.253Z,1999.90
2023-01-21T09:56:14.130Z,1999.90
2023-01-21T09:57:14.157Z,1999.90
2023-01-21T09:58:14.109Z,1999.90
2023-01-21T09:59:14.122Z,1999.90
2023-01-21T10:00:14.166Z,1999.90
2023-01-21T10:01:14.152Z,1999.90
2023-01-21T10:02:14.094Z,1999.90
2023-01-21T10:03:14.090Z,1999.90
2023-01-21T10:04:14.090Z,1999.90
2023-01-21T10:05:14.180Z,1999.90
2023-01-21T10:06:14.036Z,1999.90
2023-01-21T10:07:14.013Z,1999.90
2023-01-21T10:08:14.024Z,1999.90
2023-01-21T10:09:14.005Z,1999.90
2023-01-21T10:10:14.046Z,1999.90
2023-01-21T10:11:13.972Z,1999.90
2023-01-21T10:12:13.966Z,1999.90
2023-01-21T10:13:13.961Z,1999.90
2023-01-21T10:14:13.938Z,1999.90
2023-01-21T10:15:13.972Z,1999.90
2023-01-21T10:16:13.918Z,1999.90
2023-01-21T10:17:13.917Z,1999.90
2023-01-21T10:18:13.907Z,1999.90
2023-01-21T10:19:13.885Z,1999.90
2023-01-21T10:20:13.937Z,1999.90
2023-01-21T10:21:13.892Z,1999.90
2023-01-21T10:22:13.884Z,1999.90
2023-01-21T10:23:13.840Z,1999.90
2023-01-21T10:24:13.884Z,1999.90
2023-01-21T10:25:13.892Z,1999.90
2023-01-21T10:26:13.822Z,1999.90
2023-01-21T10:27:13.815Z,1999.90
2023-01-21T10:28:13.800Z,1999.90
2023-01-21T10:29:13.800Z,1999.90
2023-01-21T10:30:13.830Z,1999.90
2023-01-21T10:31:13.818Z,1999.90
2023-01-21T10:32:13.737Z,1999.90
2023-01-21T10:33:13.745Z,1999.90
2023-01-21T10:34:13.729Z,1999.90
2023-01-21T10:35:13.752Z,1999.90
2023-01-21T10:36:13.702Z,1999.90
2023-01-21T10:37:13.714Z,1999.90
2023-01-21T10:38:13.675Z,1999.90
2023-01-21T10:39:13.683Z,1999.90
2023-01-21T10:40:13.697Z,1999.90
2023-01-21T10:41:13.640Z,1999.90
2023-01-21T10:42:13.640Z,1999.90
2023-01-21T10:43:13.627Z,1999.90
2023-01-21T10:44:13.618Z,1999.90
2023-01-21T10:45:13.680Z,1999.90
2023-01-21T10:46:13.616Z,1999.90
2023-01-21T10:47:13.596Z,1999.90
2023-01-21T10:48:13.565Z,1999.90
2023-01-21T10:49:13.575Z,1999.90
2023-01-21T10:50:13.616Z,1999.90
2023-01-21T10:51:13.612Z,1999.90
2023-01-21T10:52:13.528Z,1999.90
2023-01-21T10:53:13.533Z,1999.90
2023-01-21T10:54:13.504Z,1999.90
2023-01-21T10:55:13.528Z,1999.90
2023-01-21T10:56:13.479Z,1999.90
2023-01-21T10:57:13.474Z,1999.90
2023-01-21T10:58:13.462Z,1999.90
2023-01-21T10:59:13.448Z,1999.90
2023-01-21T11:00:13.470Z,1999.90
2023-01-21T11:01:13.432Z,1999.90
2023-01-21T11:02:13.474Z,1999.90
2023-01-21T11:03:13.407Z,1999.90
2023-01-21T11:04:13.373Z,1999.90
2023-01-21T11:05:13.421Z,1999.90
2023-01-21T11:06:13.370Z,1999.90
2023-01-21T11:07:13.358Z,1999.90
2023-01-21T11:08:13.336Z,1999.90
2023-01-21T11:09:13.387Z,1999.90
2023-01-21T11:10:13.372Z,1999.90
2023-01-21T11:11:13.326Z,1999.90
2023-01-21T11:12:13.296Z,1999.90
2023-01-21T11:13:13.277Z,1999.90
2023-01-21T11:14:13.283Z,1999.90
2023-01-21T11:15:13.325Z,1999.90
2023-01-21T11:16:13.350Z,1999.90
2023-01-21T11:17:13.276Z,1363.20
2023-01-21T11:18:13.247Z,1999.90
2023-01-21T11:19:13.248Z,875.00
2023-01-21T11:20:13.269Z,1013.00
2023-01-21T11:21:13.206Z,765.00
2023-01-21T11:22:13.179Z,209.60
2023-01-21T11:23:13.186Z,506.30
2023-01-21T11:24:13.159Z,606.00
2023-01-21T11:25:13.203Z,1226.30
2023-01-21T11:26:13.157Z,291.80
2023-01-21T11:27:13.146Z,1999.90
2023-01-21T11:28:13.149Z,511.10
2023-01-21T11:29:13.091Z,806.70
2023-01-21T11:30:34.224Z,456.30
2023-01-21T11:31:14.203Z,1999.90
2023-01-21T11:32:13.112Z,363.70
2023-01-21T11:33:13.050Z,1999.90
2023-01-21T11:34:13.063Z,796.00
2023-01-21T11:35:13.115Z,1999.90
2023-01-21T11:36:13.044Z,1999.90
2023-01-21T11:37:13.022Z,1999.90
2023-01-21T11:38:13.000Z,702.80
2023-01-21T11:39:13.006Z,700.50
2023-01-21T11:40:13.045Z,1999.90
2023-01-21T11:41:13.004Z,1999.90
2023-01-21T11:42:12.961Z,1999.90
2023-01-21T11:43:12.966Z,1999.90
2023-01-21T11:44:12.923Z,1145.10
2023-01-21T11:45:12.990Z,1999.90
2023-01-21T11:46:12.928Z,1999.90
2023-01-21T11:47:12.903Z,1999.90
2023-01-21T11:48:12.910Z,1999.90
2023-01-21T11:49:12.873Z,1999.90
2023-01-21T11:50:12.908Z,1999.90
2023-01-21T11:51:12.897Z,1999.90
2023-01-21T11:52:12.857Z,1999.90
2023-01-21T11:53:12.843Z,1999.90
2023-01-21T11:54:12.811Z,1999.90
2023-01-21T11:55:12.890Z,1999.90
2023-01-21T11:56:12.795Z,1999.90
2023-01-21T11:57:12.815Z,1999.90
2023-01-21T11:58:12.787Z,1999.90
2023-01-21T11:59:12.759Z,1999.90
2023-01-21T12:00:12.839Z,1999.90
2023-01-21T12:01:12.799Z,1999.90
2023-01-21T12:02:12.738Z,1999.90
2023-01-21T12:03:12.749Z,1999.90
2023-01-21T12:04:12.721Z,1999.90
2023-01-21T12:05:12.709Z,1999.90
2023-01-21T12:06:12.735Z,1999.90
2023-01-21T12:07:12.679Z,1999.90
2023-01-21T12:08:12.688Z,1999.90
2023-01-21T12:09:12.658Z,1999.90
2023-01-21T12:10:12.807Z,1999.90
2023-01-21T12:11:12.680Z,1999.90
2023-01-21T12:12:12.616Z,1999.90
2023-01-21T12:13:12.630Z,1999.90
2023-01-21T12:14:12.604Z,1999.90
2023-01-21T12:15:12.621Z,1999.90
2023-01-21T12:16:12.703Z,1999.90
2023-01-21T12:17:12.576Z,1999.90
2023-01-21T12:18:12.551Z,1999.90
2023-01-21T12:19:12.564Z,1999.90
2023-01-21T12:20:12.542Z,1999.90
2023-01-21T12:21:12.589Z,1999.90
2023-01-21T12:22:12.518Z,1999.90
2023-01-21T12:23:12.499Z,1999.90
2023-01-21T12:24:12.493Z,1999.90